Strona główna
METAR-TAF:

METAR-TAF

Lotnisko :

Port lotniczy Sztokholm-Skavsta

Sztokholm-Skavsta, Szwecja

Szerokość geograficzna: 58-47N, Długość geograficzna: 016-55E, wysokość: 43 m

Aktualna obserwacja pogody

Raport powstał 10 minut temu, godzina 22:50 UTC
Wiatr 7 kt od północ, zmienny między północno-północny zachód i północny wschód
Temperatura 11°C
Wilgotność 58%
Ciśnienie 1029 hPa
Widzialność 10 km lub więcej
Brak chmur poniżej 1500 m i brak chmur cumulonimbus

METAR: ESKN 302250Z 01007KT 330V040 CAVOK 11/03 Q1029

czas: 01:00 (23:00 UTC)

Prognoza

Raport powstał 5 godziny i 30 minut temu, godzina 17:30 UTC
Prognoza ważna od 30 godzina 18 UTC do 31 godzina 18 UTC
Wiatr 10 kt od północno-północny wschód
Widzialność 10 km lub więcej
Brak chmur poniżej 1500 m i brak chmur cumulonimbus

TAF: ESKN 301730Z 3018/3118 03010KT CAVOK

Obserwacja i prognoza pogody dla ponad 4000 lotnisk (raport METAR i TAF).

Dostępne stacje oznaczono żółtymi i czerwonymi punktami na mapie.

Najedź kursorem aby zobaczyć nazwę stacji.

Kliknij aby zobaczyć obserwacje i prognozy pogody.

Aby zmienić mapę: kliknij na zielony przycisk z czarnym krzyżykiem, aby powiększyć; na zielony przycisk z myślnikiem, aby pomniejszyć; na zielone strzałki, aby przejść do map sąsiednich.


METAR-TAF: